This is the latest recevied weather packets stored in our database for station/object EA1L-13. If no packets are shown the sender has not sent any weather packets the latest 1 day(s).
| Time | Temp. | Humidity | Pressure | Rain* | Wind** | Luminosity | Snow |
|---|---|---|---|---|---|---|---|
| 1778013004 | 10° C | 100% | 1013.9 hPa | 0 mm | 0 m/s | - | - |
| 1778012104 | 10° C | 100% | 1013.7 hPa | 0 mm | 0 m/s | - | - |
| 1778011204 | 10° C | 100% | 1013.5 hPa | 0 mm | 0 m/s | - | - |
| 1778010304 | 10.56° C | 100% | 1013.4 hPa | 0 mm | 0 m/s | - | - |
| 1778009407 | 10.56° C | 100% | 1013.2 hPa | 0 mm | 0.45 m/s, 201° | - | - |
| 1778008504 | 10.56° C | 99% | 1013.1 hPa | 0 mm | 0.45 m/s, 201° | - | - |
| 1778007605 | 11.11° C | 99% | 1013.2 hPa | 0 mm | 0.45 m/s, 201° | - | - |
| 1778006705 | 11.11° C | 98% | 1013 hPa | 0 mm | 0.45 m/s, 201° | - | - |
| 1778005805 | 11.11° C | 97% | 1013 hPa | 0 mm | 1.34 m/s, 200° | - | - |
| 1778004904 | 10.56° C | 96% | 1012.9 hPa | 0 mm | 1.34 m/s, 211° | - | - |
| 1778004025 | 11.11° C | 95% | 1012.7 hPa | 0 mm | 1.34 m/s, 212° | - | - |
| 1778003104 | 11.11° C | 96% | 1012.7 hPa | 0 mm | 0.89 m/s, 161° | - | - |
| 1778002205 | 11.11° C | 97% | 1012.7 hPa | 0.25 mm | 1.34 m/s, 167° | - | - |
| 1778001304 | 11.11° C | 100% | 1012.7 hPa | 0.25 mm | 1.34 m/s, 160° | - | - |
| 1778000404 | 11.11° C | 100% | 1012.7 hPa | 0.25 mm | 1.34 m/s, 153° | - | - |
| 1777999505 | 11.11° C | 100% | 1012.6 hPa | 0.25 mm | 1.34 m/s, 188° | - | - |
| 1777998605 | 11.11° C | 100% | 1012.6 hPa | 0 mm | 1.79 m/s, 189° | - | - |
| 1777997704 | 11.11° C | 100% | 1012.6 hPa | 0.25 mm | 1.34 m/s, 214° | - | - |
| 1777996804 | 11.11° C | 98% | 1012.5 hPa | 0.25 mm | 0.89 m/s, 185° | - | - |
| 1777995905 | 11.67° C | 98% | 1012.5 hPa | 0.25 mm | 0.89 m/s, 180° | - | - |
| 1777995005 | 11.11° C | 96% | 1012.4 hPa | 1.78 mm | 0.89 m/s, 182° | - | - |
| 1777994104 | 11.67° C | 96% | 1012.4 hPa | 1.52 mm | 0 m/s | - | - |
| 1777993204 | 10° C | 93% | 1012.5 hPa | 1.52 mm | 0 m/s | - | - |
| 1777992305 | 10.56° C | 89% | 1012.4 hPa | 2.79 mm | 1.34 m/s, 213° | - | - |
| 1777991405 | 12.22° C | 89% | 1012.3 hPa | 1.27 mm | 0.89 m/s, 219° | - | - |
* Rain latest hour (hover to see other rain measurements)
** Current wind speed in m/s (hover to see current wind gust speed)